sensor_id;sensor_type;location;lat;lon;timestamp;P1;durP1;ratioP1;P2;durP2;ratioP2
53915;SDS011;39827;49.652;18.770;2023-06-22T00:01:01;725.90;;;669.28;;
53915;SDS011;39827;49.652;18.770;2023-06-22T00:03:26;782.25;;;720.85;;
53915;SDS011;39827;49.652;18.770;2023-06-22T00:05:52;965.78;;;881.58;;
53915;SDS011;39827;49.652;18.770;2023-06-22T00:08:18;1000.90;;;909.83;;
53915;SDS011;39827;49.652;18.770;2023-06-22T00:10:44;1000.72;;;909.45;;
53915;SDS011;39827;49.652;18.770;2023-06-22T00:13:11;1011.22;;;916.95;;
53915;SDS011;39827;49.652;18.770;2023-06-22T00:15:38;996.33;;;906.03;;
53915;SDS011;39827;49.652;18.770;2023-06-22T00:18:08;1015.30;;;920.22;;
53915;SDS011;39827;49.652;18.770;2023-06-22T00:20:34;993.13;;;904.22;;
53915;SDS011;39827;49.652;18.770;2023-06-22T00:23:02;987.67;;;902.00;;
53915;SDS011;39827;49.652;18.770;2023-06-22T00:25:33;978.92;;;893.20;;
53915;SDS011;39827;49.652;18.770;2023-06-22T00:28:07;996.83;;;911.05;;
53915;SDS011;39827;49.652;18.770;2023-06-22T00:30:33;956.08;;;874.53;;
53915;SDS011;39827;49.652;18.770;2023-06-22T00:32:59;948.97;;;869.10;;
53915;SDS011;39827;49.652;18.770;2023-06-22T00:35:26;947.50;;;866.40;;
53915;SDS011;39827;49.652;18.770;2023-06-22T00:37:54;965.25;;;882.50;;
53915;SDS011;39827;49.652;18.770;2023-06-22T00:40:28;922.63;;;843.10;;
53915;SDS011;39827;49.652;18.770;2023-06-22T00:42:57;966.17;;;884.10;;
53915;SDS011;39827;49.652;18.770;2023-06-22T00:45:23;941.10;;;860.88;;
53915;SDS011;39827;49.652;18.770;2023-06-22T00:47:53;953.88;;;872.83;;
53915;SDS011;39827;49.652;18.770;2023-06-22T00:50:22;962.97;;;880.20;;
53915;SDS011;39827;49.652;18.770;2023-06-22T00:52:53;968.85;;;886.88;;
53915;SDS011;39827;49.652;18.770;2023-06-22T00:55:23;944.42;;;863.55;;
53915;SDS011;39827;49.652;18.770;2023-06-22T00:57:50;894.30;;;818.92;;
53915;SDS011;39827;49.652;18.770;2023-06-22T01:00:21;933.83;;;854.45;;
53915;SDS011;39827;49.652;18.770;2023-06-22T01:02:49;979.38;;;893.72;;
53915;SDS011;39827;49.652;18.770;2023-06-22T01:05:17;981.28;;;895.08;;
53915;SDS011;39827;49.652;18.770;2023-06-22T01:10:44;979.90;;;895.55;;
53915;SDS011;39827;49.652;18.770;2023-06-22T01:13:33;1115.35;;;995.78;;
53915;SDS011;39827;49.652;18.770;2023-06-22T01:16:07;1115.25;;;998.70;;
53915;SDS011;39827;49.652;18.770;2023-06-22T01:18:40;1149.75;;;999.90;;
53915;SDS011;39827;49.652;18.770;2023-06-22T01:21:06;1109.00;;;987.58;;
53915;SDS011;39827;49.652;18.770;2023-06-22T01:26:06;1018.95;;;922.00;;
53915;SDS011;39827;49.652;18.770;2023-06-22T01:28:46;1043.82;;;943.05;;
53915;SDS011;39827;49.652;18.770;2023-06-22T01:31:16;1060.38;;;954.78;;
53915;SDS011;39827;49.652;18.770;2023-06-22T01:33:45;1031.63;;;932.80;;
53915;SDS011;39827;49.652;18.770;2023-06-22T01:36:15;1024.15;;;926.72;;
53915;SDS011;39827;49.652;18.770;2023-06-22T01:38:42;1059.15;;;953.35;;
53915;SDS011;39827;49.652;18.770;2023-06-22T01:41:09;1024.07;;;926.50;;
53915;SDS011;39827;49.652;18.770;2023-06-22T01:43:35;1047.32;;;944.03;;
53915;SDS011;39827;49.652;18.770;2023-06-22T01:46:01;1023.03;;;927.08;;
53915;SDS011;39827;49.652;18.770;2023-06-22T01:48:28;1108.90;;;991.00;;
53915;SDS011;39827;49.652;18.770;2023-06-22T01:50:54;1112.25;;;992.63;;
53915;SDS011;39827;49.652;18.770;2023-06-22T01:53:21;1134.00;;;999.90;;
53915;SDS011;39827;49.652;18.770;2023-06-22T01:55:47;1081.47;;;971.35;;
53915;SDS011;39827;49.652;18.770;2023-06-22T01:58:13;1101.53;;;984.70;;
53915;SDS011;39827;49.652;18.770;2023-06-22T02:00:38;1078.93;;;970.92;;
53915;SDS011;39827;49.652;18.770;2023-06-22T02:03:13;1087.30;;;978.08;;
53915;SDS011;39827;49.652;18.770;2023-06-22T02:05:43;1105.97;;;992.03;;
53915;SDS011;39827;49.652;18.770;2023-06-22T02:08:28;1114.90;;;998.85;;
53915;SDS011;39827;49.652;18.770;2023-06-22T02:10:57;1114.85;;;999.08;;
53915;SDS011;39827;49.652;18.770;2023-06-22T02:13:24;1115.72;;;998.20;;
53915;SDS011;39827;49.652;18.770;2023-06-22T02:15:50;1144.20;;;999.90;;
53915;SDS011;39827;49.652;18.770;2023-06-22T02:18:16;1161.50;;;999.90;;
53915;SDS011;39827;49.652;18.770;2023-06-22T02:20:41;1254.63;;;999.90;;
53915;SDS011;39827;49.652;18.770;2023-06-22T02:23:07;1223.78;;;999.90;;
53915;SDS011;39827;49.652;18.770;2023-06-22T02:25:33;1211.50;;;999.90;;
53915;SDS011;39827;49.652;18.770;2023-06-22T02:27:59;1152.60;;;999.90;;
53915;SDS011;39827;49.652;18.770;2023-06-22T02:30:25;1134.85;;;999.90;;
53915;SDS011;39827;49.652;18.770;2023-06-22T02:32:50;1160.88;;;999.90;;
53915;SDS011;39827;49.652;18.770;2023-06-22T02:35:23;1161.32;;;999.90;;
53915;SDS011;39827;49.652;18.770;2023-06-22T02:37:56;1160.10;;;999.90;;
53915;SDS011;39827;49.652;18.770;2023-06-22T02:40:25;1133.40;;;999.90;;
53915;SDS011;39827;49.652;18.770;2023-06-22T02:42:51;1141.60;;;999.90;;
53915;SDS011;39827;49.652;18.770;2023-06-22T02:45:16;1135.30;;;999.90;;
53915;SDS011;39827;49.652;18.770;2023-06-22T02:47:42;1153.03;;;999.90;;
53915;SDS011;39827;49.652;18.770;2023-06-22T02:50:07;1163.18;;;999.90;;
53915;SDS011;39827;49.652;18.770;2023-06-22T02:52:33;1135.63;;;999.90;;
53915;SDS011;39827;49.652;18.770;2023-06-22T02:54:59;1560.05;;;999.90;;
53915;SDS011;39827;49.652;18.770;2023-06-22T02:57:24;1542.18;;;999.90;;
53915;SDS011;39827;49.652;18.770;2023-06-22T02:59:50;1563.82;;;999.90;;
53915;SDS011;39827;49.652;18.770;2023-06-22T03:02:15;1347.18;;;999.90;;
53915;SDS011;39827;49.652;18.770;2023-06-22T03:04:41;1272.50;;;999.90;;
53915;SDS011;39827;49.652;18.770;2023-06-22T03:07:07;1280.20;;;999.90;;
53915;SDS011;39827;49.652;18.770;2023-06-22T03:09:33;1233.30;;;999.90;;
53915;SDS011;39827;49.652;18.770;2023-06-22T03:11:58;1260.30;;;999.90;;
53915;SDS011;39827;49.652;18.770;2023-06-22T03:14:24;1242.95;;;999.90;;
53915;SDS011;39827;49.652;18.770;2023-06-22T03:16:49;1192.95;;;999.90;;
53915;SDS011;39827;49.652;18.770;2023-06-22T03:19:15;1344.22;;;999.90;;
53915;SDS011;39827;49.652;18.770;2023-06-22T03:21:40;1358.97;;;999.90;;
53915;SDS011;39827;49.652;18.770;2023-06-22T03:24:06;1436.85;;;999.90;;
53915;SDS011;39827;49.652;18.770;2023-06-22T03:26:32;1386.28;;;999.90;;
53915;SDS011;39827;49.652;18.770;2023-06-22T03:28:57;1452.70;;;999.90;;
53915;SDS011;39827;49.652;18.770;2023-06-22T03:31:22;1247.03;;;999.90;;
53915;SDS011;39827;49.652;18.770;2023-06-22T03:33:49;1229.70;;;999.90;;
53915;SDS011;39827;49.652;18.770;2023-06-22T03:36:15;1184.25;;;999.90;;
53915;SDS011;39827;49.652;18.770;2023-06-22T03:38:45;1222.90;;;999.90;;
53915;SDS011;39827;49.652;18.770;2023-06-22T03:41:14;1137.40;;;999.90;;
53915;SDS011;39827;49.652;18.770;2023-06-22T03:43:40;1180.25;;;999.90;;
53915;SDS011;39827;49.652;18.770;2023-06-22T03:46:06;1149.97;;;999.90;;
53915;SDS011;39827;49.652;18.770;2023-06-22T03:48:31;1136.30;;;999.90;;
53915;SDS011;39827;49.652;18.770;2023-06-22T03:50:58;1145.00;;;999.90;;
53915;SDS011;39827;49.652;18.770;2023-06-22T03:53:24;1224.78;;;999.90;;
53915;SDS011;39827;49.652;18.770;2023-06-22T03:55:50;1189.25;;;999.90;;
53915;SDS011;39827;49.652;18.770;2023-06-22T03:58:16;1479.95;;;999.90;;
53915;SDS011;39827;49.652;18.770;2023-06-22T04:00:44;1473.57;;;999.90;;
53915;SDS011;39827;49.652;18.770;2023-06-22T04:03:13;1594.20;;;999.90;;
53915;SDS011;39827;49.652;18.770;2023-06-22T04:05:39;1545.28;;;999.90;;
53915;SDS011;39827;49.652;18.770;2023-06-22T04:08:05;1577.25;;;999.90;;
53915;SDS011;39827;49.652;18.770;2023-06-22T04:10:31;1614.20;;;999.90;;
53915;SDS011;39827;49.652;18.770;2023-06-22T04:12:56;1643.10;;;999.90;;
53915;SDS011;39827;49.652;18.770;2023-06-22T04:15:22;1645.13;;;999.90;;
53915;SDS011;39827;49.652;18.770;2023-06-22T04:17:47;1557.50;;;999.90;;
53915;SDS011;39827;49.652;18.770;2023-06-22T04:20:13;1511.15;;;999.90;;
53915;SDS011;39827;49.652;18.770;2023-06-22T04:22:38;1566.63;;;999.90;;
53915;SDS011;39827;49.652;18.770;2023-06-22T04:25:05;1577.68;;;999.90;;
53915;SDS011;39827;49.652;18.770;2023-06-22T04:27:32;1715.55;;;999.90;;
53915;SDS011;39827;49.652;18.770;2023-06-22T04:30:02;1638.45;;;999.90;;
53915;SDS011;39827;49.652;18.770;2023-06-22T04:32:28;1663.60;;;999.90;;
53915;SDS011;39827;49.652;18.770;2023-06-22T04:34:54;1665.97;;;999.90;;
53915;SDS011;39827;49.652;18.770;2023-06-22T04:37:19;1744.80;;;999.90;;
53915;SDS011;39827;49.652;18.770;2023-06-22T04:39:48;1691.13;;;999.90;;
53915;SDS011;39827;49.652;18.770;2023-06-22T04:42:14;1748.95;;;999.90;;
53915;SDS011;39827;49.652;18.770;2023-06-22T04:44:39;1747.07;;;999.90;;
53915;SDS011;39827;49.652;18.770;2023-06-22T04:47:06;1757.63;;;999.90;;
53915;SDS011;39827;49.652;18.770;2023-06-22T04:49:33;1670.28;;;999.90;;
53915;SDS011;39827;49.652;18.770;2023-06-22T04:52:03;1766.78;;;999.90;;
53915;SDS011;39827;49.652;18.770;2023-06-22T04:54:34;1760.72;;;999.90;;
53915;SDS011;39827;49.652;18.770;2023-06-22T04:57:00;1783.13;;;999.90;;
53915;SDS011;39827;49.652;18.770;2023-06-22T04:59:27;1882.63;;;999.90;;
53915;SDS011;39827;49.652;18.770;2023-06-22T05:01:58;1915.15;;;999.90;;
53915;SDS011;39827;49.652;18.770;2023-06-22T05:04:25;1894.68;;;999.90;;
53915;SDS011;39827;49.652;18.770;2023-06-22T05:06:53;1820.32;;;999.90;;
53915;SDS011;39827;49.652;18.770;2023-06-22T05:09:19;1926.60;;;999.90;;
53915;SDS011;39827;49.652;18.770;2023-06-22T05:11:45;1869.15;;;999.90;;
53915;SDS011;39827;49.652;18.770;2023-06-22T05:14:11;1885.78;;;999.90;;
53915;SDS011;39827;49.652;18.770;2023-06-22T05:16:37;1844.00;;;999.90;;
53915;SDS011;39827;49.652;18.770;2023-06-22T05:19:02;1903.22;;;999.90;;
53915;SDS011;39827;49.652;18.770;2023-06-22T05:21:28;1882.25;;;999.90;;
53915;SDS011;39827;49.652;18.770;2023-06-22T05:23:55;1861.05;;;999.90;;
53915;SDS011;39827;49.652;18.770;2023-06-22T05:26:24;1914.72;;;999.90;;
53915;SDS011;39827;49.652;18.770;2023-06-22T05:28:51;1909.65;;;999.90;;
53915;SDS011;39827;49.652;18.770;2023-06-22T05:31:17;1901.65;;;999.90;;
53915;SDS011;39827;49.652;18.770;2023-06-22T05:33:44;1914.78;;;999.90;;
53915;SDS011;39827;49.652;18.770;2023-06-22T05:36:11;1908.07;;;999.90;;
53915;SDS011;39827;49.652;18.770;2023-06-22T05:38:37;1884.85;;;999.90;;
53915;SDS011;39827;49.652;18.770;2023-06-22T05:41:03;1859.85;;;999.90;;
53915;SDS011;39827;49.652;18.770;2023-06-22T05:43:29;1894.43;;;999.90;;
53915;SDS011;39827;49.652;18.770;2023-06-22T05:45:54;1907.20;;;999.90;;
53915;SDS011;39827;49.652;18.770;2023-06-22T05:48:20;1900.63;;;999.90;;
53915;SDS011;39827;49.652;18.770;2023-06-22T05:50:45;1864.40;;;999.90;;
53915;SDS011;39827;49.652;18.770;2023-06-22T05:53:11;1910.63;;;999.90;;
53915;SDS011;39827;49.652;18.770;2023-06-22T05:55:36;1946.78;;;999.90;;
53915;SDS011;39827;49.652;18.770;2023-06-22T05:58:02;1999.82;;;999.90;;
53915;SDS011;39827;49.652;18.770;2023-06-22T06:00:30;1999.90;;;999.90;;
53915;SDS011;39827;49.652;18.770;2023-06-22T06:02:56;1999.90;;;999.90;;
53915;SDS011;39827;49.652;18.770;2023-06-22T06:05:21;1999.90;;;999.90;;
53915;SDS011;39827;49.652;18.770;2023-06-22T06:07:48;1999.90;;;999.90;;
53915;SDS011;39827;49.652;18.770;2023-06-22T06:10:13;1999.90;;;999.90;;
53915;SDS011;39827;49.652;18.770;2023-06-22T06:12:39;1960.68;;;999.90;;
53915;SDS011;39827;49.652;18.770;2023-06-22T06:15:04;1671.88;;;999.90;;
53915;SDS011;39827;49.652;18.770;2023-06-22T06:17:30;1793.50;;;999.90;;
53915;SDS011;39827;49.652;18.770;2023-06-22T06:19:56;1669.15;;;999.90;;
53915;SDS011;39827;49.652;18.770;2023-06-22T06:22:21;1242.05;;;999.90;;
53915;SDS011;39827;49.652;18.770;2023-06-22T06:24:48;1126.25;;;999.53;;
53915;SDS011;39827;49.652;18.770;2023-06-22T06:27:15;1213.65;;;999.90;;
53915;SDS011;39827;49.652;18.770;2023-06-22T06:29:43;1116.25;;;996.08;;
53915;SDS011;39827;49.652;18.770;2023-06-22T06:32:10;1065.85;;;961.67;;
53915;SDS011;39827;49.652;18.770;2023-06-22T06:34:36;1052.47;;;950.25;;
53915;SDS011;39827;49.652;18.770;2023-06-22T06:37:01;1034.63;;;937.33;;
53915;SDS011;39827;49.652;18.770;2023-06-22T06:39:27;1024.53;;;929.38;;
53915;SDS011;39827;49.652;18.770;2023-06-22T06:41:52;986.78;;;899.08;;
53915;SDS011;39827;49.652;18.770;2023-06-22T06:44:17;992.38;;;904.53;;
53915;SDS011;39827;49.652;18.770;2023-06-22T06:46:43;984.85;;;897.45;;
53915;SDS011;39827;49.652;18.770;2023-06-22T06:49:08;966.83;;;881.20;;
53915;SDS011;39827;49.652;18.770;2023-06-22T06:51:34;943.90;;;862.83;;
53915;SDS011;39827;49.652;18.770;2023-06-22T06:53:59;970.50;;;881.10;;
53915;SDS011;39827;49.652;18.770;2023-06-22T06:56:24;948.00;;;865.25;;
53915;SDS011;39827;49.652;18.770;2023-06-22T06:58:50;939.38;;;857.08;;
53915;SDS011;39827;49.652;18.770;2023-06-22T07:01:16;955.47;;;871.75;;
53915;SDS011;39827;49.652;18.770;2023-06-22T07:03:42;921.90;;;841.75;;
53915;SDS011;39827;49.652;18.770;2023-06-22T07:06:08;894.30;;;818.33;;
53915;SDS011;39827;49.652;18.770;2023-06-22T07:08:34;923.53;;;843.53;;
53915;SDS011;39827;49.652;18.770;2023-06-22T07:11:01;905.83;;;828.28;;
53915;SDS011;39827;49.652;18.770;2023-06-22T07:13:26;891.05;;;817.30;;
53915;SDS011;39827;49.652;18.770;2023-06-22T07:15:52;915.08;;;842.17;;
53915;SDS011;39827;49.652;18.770;2023-06-22T07:18:17;903.08;;;827.83;;
53915;SDS011;39827;49.652;18.770;2023-06-22T07:20:43;485.00;;;451.05;;
53915;SDS011;39827;49.652;18.770;2023-06-22T07:23:08;483.77;;;450.27;;
53915;SDS011;39827;49.652;18.770;2023-06-22T07:25:34;412.50;;;384.58;;
53915;SDS011;39827;49.652;18.770;2023-06-22T07:30:27;400.02;;;372.92;;
53915;SDS011;39827;49.652;18.770;2023-06-22T07:32:53;420.65;;;392.27;;
53915;SDS011;39827;49.652;18.770;2023-06-22T07:35:18;346.05;;;322.88;;
53915;SDS011;39827;49.652;18.770;2023-06-22T07:37:44;407.83;;;380.23;;
53915;SDS011;39827;49.652;18.770;2023-06-22T07:40:09;379.20;;;353.95;;
53915;SDS011;39827;49.652;18.770;2023-06-22T07:42:35;371.48;;;346.75;;
53915;SDS011;39827;49.652;18.770;2023-06-22T07:45:02;320.45;;;299.63;;
53915;SDS011;39827;49.652;18.770;2023-06-22T07:47:28;280.75;;;262.65;;
53915;SDS011;39827;49.652;18.770;2023-06-22T07:49:54;355.20;;;332.25;;
53915;SDS011;39827;49.652;18.770;2023-06-22T07:52:22;312.13;;;291.95;;
53915;SDS011;39827;49.652;18.770;2023-06-22T07:54:48;225.73;;;211.20;;
53915;SDS011;39827;49.652;18.770;2023-06-22T07:57:14;237.90;;;222.30;;
53915;SDS011;39827;49.652;18.770;2023-06-22T07:59:39;237.52;;;222.25;;
53915;SDS011;39827;49.652;18.770;2023-06-22T08:02:05;241.77;;;225.70;;
53915;SDS011;39827;49.652;18.770;2023-06-22T08:04:30;215.10;;;200.68;;
53915;SDS011;39827;49.652;18.770;2023-06-22T08:06:59;197.88;;;185.30;;
53915;SDS011;39827;49.652;18.770;2023-06-22T08:09:24;214.52;;;200.35;;
53915;SDS011;39827;49.652;18.770;2023-06-22T08:11:49;198.32;;;184.40;;
53915;SDS011;39827;49.652;18.770;2023-06-22T08:14:15;185.48;;;173.30;;
53915;SDS011;39827;49.652;18.770;2023-06-22T08:16:41;216.75;;;202.90;;
53915;SDS011;39827;49.652;18.770;2023-06-22T08:19:07;255.43;;;238.23;;
53915;SDS011;39827;49.652;18.770;2023-06-22T08:21:32;197.48;;;184.25;;
53915;SDS011;39827;49.652;18.770;2023-06-22T08:23:58;247.73;;;231.82;;
53915;SDS011;39827;49.652;18.770;2023-06-22T08:26:23;223.40;;;209.05;;
53915;SDS011;39827;49.652;18.770;2023-06-22T08:28:49;207.50;;;194.32;;
53915;SDS011;39827;49.652;18.770;2023-06-22T08:31:14;270.40;;;253.18;;
53915;SDS011;39827;49.652;18.770;2023-06-22T08:33:40;240.65;;;225.32;;
53915;SDS011;39827;49.652;18.770;2023-06-22T08:36:06;239.27;;;224.30;;
53915;SDS011;39827;49.652;18.770;2023-06-22T08:38:33;230.57;;;215.98;;
53915;SDS011;39827;49.652;18.770;2023-06-22T08:40:58;250.57;;;234.85;;
53915;SDS011;39827;49.652;18.770;2023-06-22T08:43:25;237.52;;;222.65;;
53915;SDS011;39827;49.652;18.770;2023-06-22T08:45:50;202.40;;;189.48;;
53915;SDS011;39827;49.652;18.770;2023-06-22T08:48:15;199.77;;;186.57;;
53915;SDS011;39827;49.652;18.770;2023-06-22T08:50:41;266.80;;;250.00;;
53915;SDS011;39827;49.652;18.770;2023-06-22T08:53:06;202.57;;;189.57;;
53915;SDS011;39827;49.652;18.770;2023-06-22T08:55:32;242.93;;;227.63;;
53915;SDS011;39827;49.652;18.770;2023-06-22T08:57:58;244.10;;;228.20;;
53915;SDS011;39827;49.652;18.770;2023-06-22T09:00:24;278.65;;;261.08;;
53915;SDS011;39827;49.652;18.770;2023-06-22T09:02:49;247.63;;;232.50;;
53915;SDS011;39827;49.652;18.770;2023-06-22T09:05:15;252.10;;;236.85;;
53915;SDS011;39827;49.652;18.770;2023-06-22T09:07:41;241.30;;;225.88;;
53915;SDS011;39827;49.652;18.770;2023-06-22T09:10:06;229.15;;;214.88;;
53915;SDS011;39827;49.652;18.770;2023-06-22T09:12:32;243.75;;;228.27;;
53915;SDS011;39827;49.652;18.770;2023-06-22T09:14:59;252.45;;;236.65;;
53915;SDS011;39827;49.652;18.770;2023-06-22T09:17:25;270.85;;;253.45;;
53915;SDS011;39827;49.652;18.770;2023-06-22T09:19:51;248.40;;;232.55;;
53915;SDS011;39827;49.652;18.770;2023-06-22T09:22:16;311.65;;;290.83;;
53915;SDS011;39827;49.652;18.770;2023-06-22T09:24:42;306.75;;;286.83;;
53915;SDS011;39827;49.652;18.770;2023-06-22T09:27:07;305.23;;;284.85;;
53915;SDS011;39827;49.652;18.770;2023-06-22T09:29:32;301.42;;;281.67;;
53915;SDS011;39827;49.652;18.770;2023-06-22T09:31:58;326.25;;;304.27;;
53915;SDS011;39827;49.652;18.770;2023-06-22T09:34:24;309.38;;;288.38;;
53915;SDS011;39827;49.652;18.770;2023-06-22T09:36:50;274.17;;;257.17;;
53915;SDS011;39827;49.652;18.770;2023-06-22T09:39:17;209.65;;;196.77;;
53915;SDS011;39827;49.652;18.770;2023-06-22T09:41:43;177.85;;;167.10;;
53915;SDS011;39827;49.652;18.770;2023-06-22T09:44:08;217.95;;;204.77;;
53915;SDS011;39827;49.652;18.770;2023-06-22T09:46:34;243.48;;;228.70;;
53915;SDS011;39827;49.652;18.770;2023-06-22T09:49:00;262.35;;;245.88;;
53915;SDS011;39827;49.652;18.770;2023-06-22T09:51:25;233.77;;;219.82;;
53915;SDS011;39827;49.652;18.770;2023-06-22T09:53:51;267.58;;;251.50;;
53915;SDS011;39827;49.652;18.770;2023-06-22T09:56:18;253.48;;;237.90;;
53915;SDS011;39827;49.652;18.770;2023-06-22T09:58:45;276.05;;;258.65;;
53915;SDS011;39827;49.652;18.770;2023-06-22T10:01:11;198.77;;;187.07;;
53915;SDS011;39827;49.652;18.770;2023-06-22T10:03:39;217.75;;;205.13;;
53915;SDS011;39827;49.652;18.770;2023-06-22T10:06:06;258.02;;;242.20;;
53915;SDS011;39827;49.652;18.770;2023-06-22T10:08:32;267.27;;;251.20;;
53915;SDS011;39827;49.652;18.770;2023-06-22T10:10:57;150.82;;;141.77;;
53915;SDS011;39827;49.652;18.770;2023-06-22T10:13:23;157.52;;;148.18;;
53915;SDS011;39827;49.652;18.770;2023-06-22T10:15:48;172.57;;;162.43;;
53915;SDS011;39827;49.652;18.770;2023-06-22T10:18:16;262.05;;;246.85;;
53915;SDS011;39827;49.652;18.770;2023-06-22T10:20:42;170.50;;;160.50;;
53915;SDS011;39827;49.652;18.770;2023-06-22T10:23:11;210.95;;;198.65;;
53915;SDS011;39827;49.652;18.770;2023-06-22T10:25:36;141.40;;;133.02;;
53915;SDS011;39827;49.652;18.770;2023-06-22T10:28:02;204.80;;;193.00;;
53915;SDS011;39827;49.652;18.770;2023-06-22T10:30:27;191.90;;;180.90;;
53915;SDS011;39827;49.652;18.770;2023-06-22T10:32:54;132.77;;;124.88;;
53915;SDS011;39827;49.652;18.770;2023-06-22T10:35:20;169.50;;;159.60;;
53915;SDS011;39827;49.652;18.770;2023-06-22T10:37:45;139.13;;;130.95;;
53915;SDS011;39827;49.652;18.770;2023-06-22T10:40:12;220.00;;;207.30;;
53915;SDS011;39827;49.652;18.770;2023-06-22T10:42:39;143.63;;;135.30;;
53915;SDS011;39827;49.652;18.770;2023-06-22T10:45:05;132.05;;;124.25;;
53915;SDS011;39827;49.652;18.770;2023-06-22T10:47:31;147.93;;;139.07;;
53915;SDS011;39827;49.652;18.770;2023-06-22T10:49:57;118.15;;;111.13;;
53915;SDS011;39827;49.652;18.770;2023-06-22T10:52:22;176.90;;;166.50;;
53915;SDS011;39827;49.652;18.770;2023-06-22T10:54:47;202.48;;;190.90;;
53915;SDS011;39827;49.652;18.770;2023-06-22T10:57:13;168.73;;;158.70;;
53915;SDS011;39827;49.652;18.770;2023-06-22T10:59:38;160.25;;;150.73;;
53915;SDS011;39827;49.652;18.770;2023-06-22T11:02:04;223.75;;;210.68;;
53915;SDS011;39827;49.652;18.770;2023-06-22T11:04:30;243.85;;;229.68;;
53915;SDS011;39827;49.652;18.770;2023-06-22T11:06:55;180.88;;;170.13;;
53915;SDS011;39827;49.652;18.770;2023-06-22T11:09:21;197.32;;;185.75;;
53915;SDS011;39827;49.652;18.770;2023-06-22T11:11:47;152.68;;;143.45;;
53915;SDS011;39827;49.652;18.770;2023-06-22T11:14:13;198.50;;;186.82;;
53915;SDS011;39827;49.652;18.770;2023-06-22T11:16:38;182.82;;;171.80;;
53915;SDS011;39827;49.652;18.770;2023-06-22T11:19:04;133.38;;;125.13;;
53915;SDS011;39827;49.652;18.770;2023-06-22T11:21:30;122.70;;;115.28;;
53915;SDS011;39827;49.652;18.770;2023-06-22T11:23:56;219.43;;;206.65;;
53915;SDS011;39827;49.652;18.770;2023-06-22T11:26:22;120.18;;;112.63;;
53915;SDS011;39827;49.652;18.770;2023-06-22T11:28:47;222.85;;;209.77;;
53915;SDS011;39827;49.652;18.770;2023-06-22T11:31:13;181.77;;;170.90;;
53915;SDS011;39827;49.652;18.770;2023-06-22T11:33:39;185.45;;;174.60;;
53915;SDS011;39827;49.652;18.770;2023-06-22T11:36:04;218.40;;;205.77;;
53915;SDS011;39827;49.652;18.770;2023-06-22T11:38:30;240.40;;;226.50;;
53915;SDS011;39827;49.652;18.770;2023-06-22T11:40:57;189.75;;;178.65;;
53915;SDS011;39827;49.652;18.770;2023-06-22T11:43:23;254.85;;;239.98;;
53915;SDS011;39827;49.652;18.770;2023-06-22T11:45:49;251.00;;;236.65;;
53915;SDS011;39827;49.652;18.770;2023-06-22T11:48:14;198.70;;;187.02;;
53915;SDS011;39827;49.652;18.770;2023-06-22T11:50:40;137.75;;;128.95;;
53915;SDS011;39827;49.652;18.770;2023-06-22T11:53:05;225.77;;;212.60;;
53915;SDS011;39827;49.652;18.770;2023-06-22T11:55:31;254.25;;;239.27;;
53915;SDS011;39827;49.652;18.770;2023-06-22T11:57:57;248.52;;;233.80;;
53915;SDS011;39827;49.652;18.770;2023-06-22T12:00:23;247.35;;;232.93;;
53915;SDS011;39827;49.652;18.770;2023-06-22T12:02:49;260.05;;;245.10;;
53915;SDS011;39827;49.652;18.770;2023-06-22T12:05:17;303.92;;;285.75;;
53915;SDS011;39827;49.652;18.770;2023-06-22T12:07:45;146.65;;;137.55;;
53915;SDS011;39827;49.652;18.770;2023-06-22T12:10:11;257.63;;;242.23;;
53915;SDS011;39827;49.652;18.770;2023-06-22T12:12:36;278.02;;;261.38;;
53915;SDS011;39827;49.652;18.770;2023-06-22T12:15:02;241.25;;;227.35;;
53915;SDS011;39827;49.652;18.770;2023-06-22T12:17:29;248.55;;;233.75;;
53915;SDS011;39827;49.652;18.770;2023-06-22T12:19:55;226.82;;;213.60;;
53915;SDS011;39827;49.652;18.770;2023-06-22T12:22:20;194.82;;;183.02;;
53915;SDS011;39827;49.652;18.770;2023-06-22T12:24:46;220.85;;;207.93;;
53915;SDS011;39827;49.652;18.770;2023-06-22T12:27:11;225.02;;;211.68;;
53915;SDS011;39827;49.652;18.770;2023-06-22T12:29:37;217.98;;;204.50;;
53915;SDS011;39827;49.652;18.770;2023-06-22T12:32:02;234.70;;;220.55;;
53915;SDS011;39827;49.652;18.770;2023-06-22T12:34:28;275.23;;;258.52;;
53915;SDS011;39827;49.652;18.770;2023-06-22T12:36:54;263.08;;;247.43;;
53915;SDS011;39827;49.652;18.770;2023-06-22T12:39:19;209.20;;;196.73;;
53915;SDS011;39827;49.652;18.770;2023-06-22T12:41:45;261.33;;;245.80;;
53915;SDS011;39827;49.652;18.770;2023-06-22T12:44:10;251.35;;;236.48;;
53915;SDS011;39827;49.652;18.770;2023-06-22T12:46:36;277.30;;;260.42;;
53915;SDS011;39827;49.652;18.770;2023-06-22T12:49:03;209.20;;;196.52;;
53915;SDS011;39827;49.652;18.770;2023-06-22T12:51:29;253.13;;;238.40;;
53915;SDS011;39827;49.652;18.770;2023-06-22T12:53:55;246.23;;;231.77;;
53915;SDS011;39827;49.652;18.770;2023-06-22T12:56:21;242.10;;;227.35;;
53915;SDS011;39827;49.652;18.770;2023-06-22T12:58:46;246.13;;;231.13;;
53915;SDS011;39827;49.652;18.770;2023-06-22T13:01:12;317.17;;;298.05;;
53915;SDS011;39827;49.652;18.770;2023-06-22T13:03:37;219.07;;;205.95;;
53915;SDS011;39827;49.652;18.770;2023-06-22T13:06:03;154.10;;;144.82;;
53915;SDS011;39827;49.652;18.770;2023-06-22T13:08:28;161.55;;;151.65;;
53915;SDS011;39827;49.652;18.770;2023-06-22T13:10:54;233.43;;;219.60;;
53915;SDS011;39827;49.652;18.770;2023-06-22T13:13:23;161.40;;;151.38;;
53915;SDS011;39827;49.652;18.770;2023-06-22T13:15:50;168.57;;;158.43;;
53915;SDS011;39827;49.652;18.770;2023-06-22T13:18:15;144.38;;;135.80;;
53915;SDS011;39827;49.652;18.770;2023-06-22T13:20:41;157.02;;;147.52;;
53915;SDS011;39827;49.652;18.770;2023-06-22T13:23:06;243.95;;;229.10;;
53915;SDS011;39827;49.652;18.770;2023-06-22T13:25:32;217.52;;;203.82;;
53915;SDS011;39827;49.652;18.770;2023-06-22T13:27:57;222.52;;;209.07;;
53915;SDS011;39827;49.652;18.770;2023-06-22T13:30:23;222.27;;;208.73;;
53915;SDS011;39827;49.652;18.770;2023-06-22T13:32:48;237.50;;;222.57;;
53915;SDS011;39827;49.652;18.770;2023-06-22T13:35:13;282.08;;;265.13;;
53915;SDS011;39827;49.652;18.770;2023-06-22T13:37:39;218.80;;;205.20;;
53915;SDS011;39827;49.652;18.770;2023-06-22T13:40:08;270.35;;;253.88;;
53915;SDS011;39827;49.652;18.770;2023-06-22T13:42:33;192.65;;;181.18;;